KMRY/MRY METAR and TAF weather

Enter ICAO airport designator
Station Type Date Time Source
KMRY METAR 2019/08/24 06:54 UTC NOAA

KMRY 240654Z AUTO 09004KT 10SM OVC005 17/13 A2989 RMK AO2 SLP132 T01670133


Station Type Date Time Source
KMRY Decoded METAR 2019/08/24 06:54 UTC NOAA

Station name not available
Aug 24, 2019 - 02:54 AM EDT / 2019.08.24 0654 UTC
Wind: from the E (090 degrees) at 5 MPH (4 KT):0
Visibility: 10 mile(s):0
Sky conditions: overcast
Temperature: 62.1 F (16.7 C)
Dew Point: 55.9 F (13.3 C)
Relative Humidity: 80%
Pressure (altimeter): 29.89 in. Hg (1012 hPa)
ob: KMRY 240654Z AUTO 09004KT 10SM OVC005 17/13 A2989 RMK AO2 SLP132 T01670133
cycle: 7

Station Type Date Time Source
KMRY TAF 2019/08/24 06:36 UTC NOAA

TAF KMRY 240532Z 2406/2506 24004KT P6SM BKN008
FM240700 VRB04KT 6SM BR OVC004
FM241800 29010KT P6SM SKC
FM250300 29008KT P6SM BKN008

Example: see airport list